createdAt,value
2023-03-25T00:01:59.024Z,97719.57
2023-03-25T00:07:01.725Z,97726.34
2023-03-25T00:12:04.105Z,97730.60
2023-03-25T00:17:07.951Z,97726.66
2023-03-25T00:22:09.689Z,97728.86
2023-03-25T00:27:11.451Z,97731.34
2023-03-25T00:32:16.429Z,97730.06
2023-03-25T00:37:18.354Z,97718.13
2023-03-25T00:42:26.357Z,97723.47
2023-03-25T00:47:28.930Z,97728.86
2023-03-25T00:52:36.492Z,97730.45
2023-03-25T00:57:38.329Z,97734.84
2023-03-25T01:02:40.094Z,97730.80
2023-03-25T01:07:42.313Z,97732.29
2023-03-25T01:12:44.027Z,97736.87
2023-03-25T01:17:46.360Z,97736.27
2023-03-25T01:22:48.157Z,97736.90
2023-03-25T01:27:49.973Z,97736.80
2023-03-25T01:32:51.716Z,97732.73
2023-03-25T01:37:54.788Z,97733.31
2023-03-25T01:42:56.741Z,97724.31
2023-03-25T01:48:23.038Z,97716.68
2023-03-25T01:53:30.227Z,97714.74
2023-03-25T01:58:33.361Z,97723.92
2023-03-25T02:03:37.248Z,97724.34
2023-03-25T02:08:41.603Z,97720.60
2023-03-25T02:13:43.687Z,97715.97
2023-03-25T02:19:06.855Z,97717.70
2023-03-25T02:24:46.406Z,97721.98
2023-03-25T02:30:09.160Z,97737.25
2023-03-25T02:35:10.862Z,97745.10
2023-03-25T02:40:26.016Z,97742.70
2023-03-25T02:45:32.066Z,97731.38
2023-03-25T02:50:43.670Z,97728.48
2023-03-25T02:55:48.075Z,97729.14
2023-03-25T03:00:52.181Z,97744.79
2023-03-25T03:05:58.869Z,97751.16
2023-03-25T03:11:09.506Z,97757.83
2023-03-25T03:16:30.989Z,97760.20
2023-03-25T03:21:38.749Z,97766.86
2023-03-25T03:26:49.553Z,97776.30
2023-03-25T03:32:13.468Z,97767.71
2023-03-25T03:37:21.239Z,97765.98
2023-03-25T03:42:31.088Z,97776.48
2023-03-25T03:47:38.381Z,97775.63
2023-03-25T03:52:50.830Z,97769.13
2023-03-25T03:57:58.921Z,97754.38
2023-03-25T04:03:15.851Z,97760.55
2023-03-25T04:08:28.787Z,97769.15
2023-03-25T04:13:35.429Z,97771.42
2023-03-25T04:18:37.178Z,97766.48
2023-03-25T04:23:41.176Z,97770.77
2023-03-25T04:28:44.618Z,97778.31
2023-03-25T04:33:50.689Z,97785.73
2023-03-25T04:38:53.177Z,97784.55
2023-03-25T04:43:54.951Z,97783.20
2023-03-25T04:48:57.154Z,97782.35
2023-03-25T04:53:59.226Z,97792.98
2023-03-25T04:59:00.919Z,97791.63
2023-03-25T05:06:13.987Z,97785.80
2023-03-25T05:11:15.725Z,97793.88
2023-03-25T05:16:17.708Z,97802.63
2023-03-25T05:21:19.571Z,97800.20
2023-03-25T05:26:21.314Z,97796.08
2023-03-25T05:31:23.037Z,97793.48
2023-03-25T05:36:25.212Z,97804.08
2023-03-25T05:41:38.791Z,97808.34
2023-03-25T05:46:40.609Z,97810.05
2023-03-25T05:51:45.226Z,97806.98
2023-03-25T05:56:47.227Z,97806.95
2023-03-25T06:01:50.033Z,97802.77
2023-03-25T06:06:51.781Z,97810.88
2023-03-25T06:11:53.708Z,97817.89
2023-03-25T06:16:56.917Z,97822.18
2023-03-25T06:21:58.691Z,97822.90
2023-03-25T06:27:00.430Z,97824.20
2023-03-25T06:32:02.149Z,97824.66
2023-03-25T06:37:04.024Z,97837.18
2023-03-25T06:42:06.218Z,97839.92
2023-03-25T06:47:36.647Z,97834.05
2023-03-25T06:52:38.630Z,97831.67
2023-03-25T06:57:42.159Z,97828.48
2023-03-25T07:02:43.893Z,97825.86
2023-03-25T07:07:45.673Z,97820.79
2023-03-25T07:12:47.879Z,97820.94
2023-03-25T07:17:49.898Z,97816.85
2023-03-25T07:22:54.455Z,97806.79
2023-03-25T07:27:56.405Z,97804.48
2023-03-25T07:32:58.640Z,97798.04
2023-03-25T07:38:00.449Z,97799.05
2023-03-25T07:43:02.272Z,97801.58
2023-03-25T07:48:34.312Z,97809.44
2023-03-25T07:53:39.104Z,97801.63
2023-03-25T07:58:42.093Z,97797.75
2023-03-25T08:03:43.958Z,97793.72
2023-03-25T08:08:46.397Z,97793.90
2023-03-25T08:13:48.202Z,97787.38
2023-03-25T08:18:53.203Z,97781.85
2023-03-25T08:23:58.536Z,97769.41
2023-03-25T08:29:02.764Z,97770.19
2023-03-25T08:34:05.633Z,97770.20
2023-03-25T08:39:11.838Z,97765.33
2023-03-25T08:44:13.840Z,97773.44
2023-03-25T08:49:15.520Z,97772.46
2023-03-25T08:54:17.445Z,97764.17
2023-03-25T08:59:19.691Z,97763.52
2023-03-25T09:04:21.421Z,97763.08
2023-03-25T09:09:23.504Z,97763.04
2023-03-25T09:14:25.375Z,97756.14
2023-03-25T09:19:27.169Z,97743.04
2023-03-25T09:24:29.017Z,97740.91
2023-03-25T09:29:30.867Z,97740.25
2023-03-25T09:34:32.578Z,97731.52
2023-03-25T09:39:34.328Z,97734.11
2023-03-25T09:44:57.192Z,97734.54
2023-03-25T09:50:02.113Z,97733.89
2023-03-25T09:55:08.719Z,97749.06
2023-03-25T10:00:20.581Z,97756.82
2023-03-25T10:05:46.823Z,97747.14
2023-03-25T10:11:09.887Z,97745.89
2023-03-25T10:16:31.458Z,97747.71
2023-03-25T10:21:54.785Z,97739.02
2023-03-25T10:27:27.110Z,97730.63
2023-03-25T10:32:40.609Z,97723.95
2023-03-25T10:37:42.667Z,97715.79
2023-03-25T10:42:55.580Z,97710.67
2023-03-25T10:48:23.259Z,97705.94
2023-03-25T10:53:27.947Z,97697.21
2023-03-25T10:58:31.861Z,97690.90
2023-03-25T11:03:35.453Z,97690.52
2023-03-25T11:08:37.252Z,97690.74
2023-03-25T11:13:41.207Z,97688.13
2023-03-25T11:18:44.440Z,97677.45
2023-03-25T11:23:51.821Z,97675.46
2023-03-25T11:28:56.724Z,97667.58
2023-03-25T11:34:10.684Z,97667.62
2023-03-25T11:39:34.127Z,97669.64
2023-03-25T11:44:35.864Z,97674.66
2023-03-25T11:49:41.347Z,97668.15
2023-03-25T11:54:44.755Z,97682.05
2023-03-25T11:59:48.168Z,97714.70
2023-03-25T12:05:12.318Z,97727.20
2023-03-25T12:10:19.067Z,97717.95
2023-03-25T12:15:33.434Z,97703.39
2023-03-25T12:20:56.316Z,97696.61
2023-03-25T12:26:11.733Z,97691.06
2023-03-25T12:31:43.723Z,97684.48
2023-03-25T12:37:25.095Z,97673.31
2023-03-25T12:42:39.267Z,97663.33
2023-03-25T12:47:46.121Z,97657.39
2023-03-25T12:53:17.454Z,97658.11
2023-03-25T12:58:37.478Z,97652.65
2023-03-25T13:04:05.224Z,97647.24
2023-03-25T13:09:18.524Z,97645.70
2023-03-25T13:14:27.368Z,97644.63
2023-03-25T13:19:34.708Z,97633.27
2023-03-25T13:24:49.681Z,97634.23
2023-03-25T13:29:54.603Z,97630.85
2023-03-25T13:35:11.674Z,97633.45
2023-03-25T13:40:25.962Z,97633.87
2023-03-25T13:45:32.915Z,97630.13
2023-03-25T13:50:36.494Z,97636.64
2023-03-25T13:55:46.425Z,97646.63
2023-03-25T14:01:03.716Z,97647.48
2023-03-25T14:06:08.859Z,97640.86
2023-03-25T14:11:38.009Z,97641.91
2023-03-25T14:16:47.674Z,97641.36
2023-03-25T14:21:51.763Z,97645.70
2023-03-25T14:26:59.840Z,97657.83
2023-03-25T14:32:16.709Z,97654.87
2023-03-25T14:37:27.833Z,97651.64
2023-03-25T14:42:58.367Z,97653.80
2023-03-25T14:48:00.695Z,97653.95
2023-03-25T14:53:06.925Z,97660.05
2023-03-25T14:58:25.499Z,97668.98
2023-03-25T15:03:33.934Z,97673.48
2023-03-25T15:08:39.308Z,97674.70
2023-03-25T15:13:52.844Z,97679.38
2023-03-25T15:18:54.594Z,97668.32
2023-03-25T15:24:09.929Z,97674.38
2023-03-25T15:29:39.459Z,97680.56
2023-03-25T15:34:50.343Z,97681.46
2023-03-25T15:40:10.083Z,97687.14
2023-03-25T15:45:51.807Z,97682.95
2023-03-25T15:51:32.309Z,97679.67
2023-03-25T15:56:41.148Z,97684.14
2023-03-25T16:01:47.594Z,97685.45
2023-03-25T16:06:53.894Z,97696.60
2023-03-25T16:12:00.484Z,97697.70
2023-03-25T16:17:07.378Z,97698.38
2023-03-25T16:22:32.041Z,97708.16
2023-03-25T16:27:33.695Z,97716.53
2023-03-25T16:32:36.132Z,97713.13
2023-03-25T16:37:40.018Z,97711.82
2023-03-25T16:42:41.764Z,97719.14
2023-03-25T16:47:46.269Z,97723.48
2023-03-25T16:52:50.469Z,97726.80
2023-03-25T16:57:52.492Z,97722.98
2023-03-25T17:02:54.630Z,97729.48
2023-03-25T17:07:59.993Z,97733.77
2023-03-25T17:13:09.164Z,97733.89
2023-03-25T17:18:15.786Z,97742.15
2023-03-25T17:23:17.417Z,97745.95
2023-03-25T17:28:19.834Z,97746.48
2023-03-25T17:33:39.197Z,97742.59
2023-03-25T17:38:47.338Z,97746.05
2023-03-25T17:43:54.094Z,97748.65
2023-03-25T17:48:57.854Z,97741.98
2023-03-25T17:53:59.587Z,97741.30
2023-03-25T17:59:04.902Z,97743.69
2023-03-25T18:04:06.945Z,97742.85
2023-03-25T18:09:24.150Z,97745.59
2023-03-25T18:14:26.614Z,97753.12
2023-03-25T18:19:31.258Z,97760.14
2023-03-25T18:24:34.252Z,97758.58
2023-03-25T18:29:37.689Z,97764.55
2023-03-25T18:34:39.397Z,97762.48
2023-03-25T18:39:41.166Z,97761.77
2023-03-25T18:44:42.920Z,97771.31
2023-03-25T18:49:44.668Z,97763.92
2023-03-25T18:54:46.672Z,97763.55
2023-03-25T18:59:48.395Z,97757.20
2023-03-25T19:05:00.227Z,97759.92
2023-03-25T19:10:02.680Z,97760.21
2023-03-25T19:15:05.032Z,97759.27
2023-03-25T19:20:09.163Z,97753.53
2023-03-25T19:25:11.545Z,97755.81
2023-03-25T19:30:17.588Z,97751.27
2023-03-25T19:35:21.552Z,97744.48
2023-03-25T19:40:26.262Z,97747.23
2023-03-25T19:45:30.357Z,97747.07
2023-03-25T19:50:32.925Z,97747.27
2023-03-25T19:55:34.979Z,97748.23
2023-03-25T20:00:36.681Z,97752.39
2023-03-25T20:05:38.416Z,97752.63
2023-03-25T20:10:41.465Z,97753.24
2023-03-25T20:15:43.648Z,97751.46
2023-03-25T20:20:45.418Z,97757.41
2023-03-25T20:25:47.415Z,97771.40
2023-03-25T20:30:49.109Z,97781.48
2023-03-25T20:35:51.277Z,97784.64
2023-03-25T20:40:54.696Z,97784.00
2023-03-25T20:45:56.952Z,97791.41
2023-03-25T20:51:04.418Z,97791.25
2023-03-25T20:56:06.475Z,97799.45
2023-03-25T21:01:08.300Z,97807.14
2023-03-25T21:06:22.866Z,97819.92
2023-03-25T21:11:25.723Z,97818.36
2023-03-25T21:16:27.672Z,97822.63
2023-03-25T21:21:29.860Z,97816.12
2023-03-25T21:26:32.439Z,97818.98
2023-03-25T21:31:34.205Z,97820.36
2023-03-25T21:36:36.019Z,97819.53
2023-03-25T21:41:38.029Z,97824.02
2023-03-25T21:46:40.966Z,97824.59
2023-03-25T21:51:44.296Z,97823.46
2023-03-25T21:56:47.037Z,97820.06
2023-03-25T22:01:48.871Z,97825.89
2023-03-25T22:06:51.390Z,97818.70
2023-03-25T22:11:53.987Z,97820.42
2023-03-25T22:16:55.794Z,97818.38
2023-03-25T22:21:57.673Z,97815.96
2023-03-25T22:26:59.608Z,97816.12
2023-03-25T22:32:07.039Z,97816.95
2023-03-25T22:37:09.064Z,97820.01
2023-03-25T22:42:14.498Z,97820.16
2023-03-25T22:47:19.954Z,97820.45
2023-03-25T22:52:41.773Z,97825.85
2023-03-25T22:57:43.497Z,97826.13
2023-03-25T23:02:47.056Z,97832.75
2023-03-25T23:07:48.845Z,97837.32
2023-03-25T23:12:51.065Z,97837.29
2023-03-25T23:17:52.773Z,97833.86
2023-03-25T23:22:54.821Z,97836.73
2023-03-25T23:27:58.140Z,97828.66
2023-03-25T23:33:00.014Z,97825.42
2023-03-25T23:38:01.834Z,97825.63
2023-03-25T23:43:03.595Z,97829.59
2023-03-25T23:48:06.498Z,97820.73
2023-03-25T23:53:08.336Z,97820.59
2023-03-25T23:58:10.150Z,97823.86
